Detall de PIREP

Printer-friendly versionPDF version

[2012/10/11 21:27:00]
Flight IATA:CT1005
Pilot Number:037
Company ICAO:CAT
Aircraft Type:B752/E
PAX:108
Aircraft Registration:PAX
Departing Airport: EVRA
Destination Airport: ESSA
Alternate Airport:ESGG
Online: VATSIM
Route:LAPSA N623 NEKET N616 XILAN
Flight Level:F220
No Slew and time accel
No pause
Crash detect
Detect pilot in Cockpit between each 30 and 45 minutes
21:27 Zero fuel Weight: 160889 Lbs, Fuel Weight: 20132 Lbs
21:27 VATSIM:EVRA 112050Z 36006KT 320V030 9999 -SHRA SCT014 BKN024CB BKN028 06/06 Q1011 R18/290158 NOSIG
21:27 VATSIM:ESSA 112050Z 25004KT CAVOK 01/00 Q1013
21:28 Parking Brakes off
21:42 Take-off
21:42 Take off Weight: 179979 Lbs
21:42 Wind: 010º @ 003 Knots Heading: 185º
21:42 POS N56º 55´ 15´´ E023º 58´ 14´´
21:42 Gear Up: 181 Knots
21:42 Flaps:2 at 182 Knots
21:42 Flaps:1 at 214 Knots
21:42 Flaps:0 at 231 Knots
21:50 TOC
21:50 Fuel Weight: 16790 Lb
21:57 Wind:313º@008 Knots Heading: 303º Ground Speed: 440 Knots Altitude 21961 ft
22:08 TOD
22:08 Fuel Weight: 13757 Lb
22:12 Wind:310º@005 Knots Heading: 329º Ground Speed: 307 Knots Altitude 17513 ft
22:27 Wind:230º@005 Knots Heading: 251º Ground Speed: 260 Knots Altitude 6125 ft
22:30 Flaps:1 at 209 Knots
22:32 Flaps:2 at 177 Knots
22:32 Flaps:3 at 168 Knots
22:33 Gear Down: 162 Knots
22:33 Flaps:4 at 162 Knots
22:33 Flaps:5 at 153 Knots
22:34 Flaps:6 at 145 Knots
22:35 TouchDown:Rate -203 ft/min Speed: 139 Knots
22:35 VATSIM:ESSA 112150Z 23003KT CAVOK M00/M00 Q1014
22:35 Land
22:35 Wind:227º@003 Knots
22:35 Heading: 252º
22:35 Flight Duration: 00:53
22:35 Landing Weight: 172844 Lbs
22:35 POS N59º 39´ 36´´ E017º 56´ 58´´
22:43 Parking brakes on
22:43 Block to Block Duration: 01:15
22:43 Final Fuel: 11190 Lbls
22:43 Spent Fuel: 8941 Lbls
22:43 Flight Length: 244 NM
22:43 TOD Land Length: 73 NM

Exportar CSV

Powered by Drupal - Modified by Danger4k